createdAt,value
2022-12-11T00:00:47.663Z,-0.60
2022-12-11T00:03:32.411Z,-0.60
2022-12-11T00:06:17.186Z,-0.56
2022-12-11T00:09:01.965Z,-0.53
2022-12-11T00:11:46.603Z,-0.57
2022-12-11T00:14:31.407Z,-0.57
2022-12-11T00:17:16.145Z,-0.57
2022-12-11T00:20:00.798Z,-0.59
2022-12-11T00:22:45.514Z,-0.64
2022-12-11T00:25:30.338Z,-0.63
2022-12-11T00:28:15.124Z,-0.64
2022-12-11T00:30:59.898Z,-0.77
2022-12-11T00:33:44.559Z,-0.99
2022-12-11T00:36:29.428Z,-1.24
2022-12-11T00:39:14.281Z,-1.29
2022-12-11T00:41:59.154Z,-1.30
2022-12-11T00:44:43.978Z,-1.33
2022-12-11T00:47:28.671Z,-1.24
2022-12-11T00:50:13.441Z,-1.14
2022-12-11T00:52:58.113Z,-1.07
2022-12-11T00:55:42.789Z,-1.08
2022-12-11T00:58:27.487Z,-1.02
2022-12-11T01:01:12.293Z,-0.98
2022-12-11T01:03:57.087Z,-1.04
2022-12-11T01:06:41.878Z,-1.12
2022-12-11T01:09:26.639Z,-1.17
2022-12-11T01:12:11.433Z,-1.15
2022-12-11T01:14:56.227Z,-1.11
2022-12-11T01:17:41.004Z,-1.08
2022-12-11T01:20:25.816Z,-1.01
2022-12-11T01:23:10.498Z,-0.99
2022-12-11T01:25:55.185Z,-0.92
2022-12-11T01:28:39.858Z,-0.84
2022-12-11T01:31:24.623Z,-0.84
2022-12-11T01:34:09.474Z,-0.79
2022-12-11T01:36:54.205Z,-0.77
2022-12-11T01:39:38.800Z,-0.77
2022-12-11T01:42:23.483Z,-0.76
2022-12-11T01:45:08.434Z,-0.72
2022-12-11T01:47:53.394Z,-0.76
2022-12-11T01:50:38.146Z,-0.72
2022-12-11T01:53:22.914Z,-0.68
2022-12-11T01:56:07.616Z,-0.66
2022-12-11T01:58:52.340Z,-0.65
2022-12-11T02:01:37.185Z,-0.63
2022-12-11T02:04:22.382Z,-0.59
2022-12-11T02:07:07.021Z,-0.58
2022-12-11T02:09:51.887Z,-0.58
2022-12-11T02:12:36.577Z,-0.61
2022-12-11T02:15:21.296Z,-0.72
2022-12-11T02:18:05.930Z,-0.76
2022-12-11T02:20:50.743Z,-0.78
2022-12-11T02:23:35.511Z,-0.77
2022-12-11T02:26:20.461Z,-0.82
2022-12-11T02:29:05.251Z,-0.86
2022-12-11T02:31:50.176Z,-1.01
2022-12-11T02:34:34.970Z,-0.99
2022-12-11T02:37:19.627Z,-1.00
2022-12-11T02:40:04.574Z,-1.07
2022-12-11T02:42:49.379Z,-1.07
2022-12-11T02:45:34.294Z,-1.04
2022-12-11T02:48:19.000Z,-1.03
2022-12-11T02:51:03.750Z,-1.01
2022-12-11T02:53:48.488Z,-1.08
2022-12-11T02:56:33.312Z,-1.12
2022-12-11T02:59:18.153Z,-1.15
2022-12-11T03:02:02.954Z,-1.15
2022-12-11T03:04:47.657Z,-1.24
2022-12-11T03:07:32.377Z,-1.24
2022-12-11T03:10:17.359Z,-1.23
2022-12-11T03:13:01.977Z,-1.22
2022-12-11T03:15:46.924Z,-1.22
2022-12-11T03:18:31.571Z,-1.35
2022-12-11T03:21:16.307Z,-1.38
2022-12-11T03:24:00.939Z,-1.28
2022-12-11T03:26:45.612Z,-1.27
2022-12-11T03:29:30.350Z,-1.21
2022-12-11T03:32:15.081Z,-1.23
2022-12-11T03:34:59.941Z,-1.20
2022-12-11T03:37:44.627Z,-1.14
2022-12-11T03:40:29.528Z,-1.11
2022-12-11T03:43:14.155Z,-1.10
2022-12-11T03:45:58.960Z,-1.07
2022-12-11T03:48:43.599Z,-1.04
2022-12-11T03:51:28.290Z,-1.03
2022-12-11T03:54:13.035Z,-1.00
2022-12-11T03:56:57.855Z,-1.04
2022-12-11T03:59:42.538Z,-1.03
2022-12-11T04:02:27.395Z,-1.03
2022-12-11T04:05:12.646Z,-1.10
2022-12-11T04:07:57.773Z,-1.10
2022-12-11T04:10:42.528Z,-1.17
2022-12-11T04:13:27.272Z,-1.23
2022-12-11T04:16:12.239Z,-1.31
2022-12-11T04:18:56.953Z,-1.31
2022-12-11T04:21:41.936Z,-1.34
2022-12-11T04:24:26.482Z,-1.43
2022-12-11T04:27:11.426Z,-1.50
2022-12-11T04:29:56.150Z,-1.56
2022-12-11T04:32:40.917Z,-1.62
2022-12-11T04:35:25.694Z,-1.61
2022-12-11T04:38:10.425Z,-1.67
2022-12-11T04:40:55.241Z,-1.85
2022-12-11T04:43:39.906Z,-1.94
2022-12-11T04:46:24.771Z,-2.05
2022-12-11T04:49:09.486Z,-2.11
2022-12-11T04:51:54.190Z,-2.15
2022-12-11T04:54:38.819Z,-2.12
2022-12-11T04:57:23.554Z,-2.05
2022-12-11T05:00:08.418Z,-2.01
2022-12-11T05:02:53.174Z,-1.97
2022-12-11T05:05:37.948Z,-1.94
2022-12-11T05:08:22.785Z,-1.86
2022-12-11T05:11:07.509Z,-1.84
2022-12-11T05:13:52.269Z,-1.94
2022-12-11T05:16:37.119Z,-1.97
2022-12-11T05:19:21.864Z,-2.03
2022-12-11T05:22:06.548Z,-2.16
2022-12-11T05:24:51.231Z,-2.21
2022-12-11T05:27:36.115Z,-2.34
2022-12-11T05:30:20.940Z,-2.43
2022-12-11T05:33:05.746Z,-2.50
2022-12-11T05:35:50.660Z,-2.51
2022-12-11T05:38:35.370Z,-2.51
2022-12-11T05:41:20.215Z,-2.59
2022-12-11T05:44:04.839Z,-2.64
2022-12-11T05:46:49.731Z,-2.66
2022-12-11T05:49:34.435Z,-2.83
2022-12-11T05:52:19.177Z,-2.93
2022-12-11T05:55:03.850Z,-2.96
2022-12-11T05:57:48.717Z,-3.02
2022-12-11T06:00:36.137Z,-3.02
2022-12-11T06:03:21.209Z,-3.24
2022-12-11T06:06:05.957Z,-3.42
2022-12-11T06:08:50.775Z,-3.46
2022-12-11T06:11:35.519Z,-3.51
2022-12-11T06:14:20.179Z,-3.49
2022-12-11T06:17:04.973Z,-3.35
2022-12-11T06:19:49.807Z,-3.43
2022-12-11T06:22:34.585Z,-3.36
2022-12-11T06:25:19.394Z,-3.41
2022-12-11T06:28:04.103Z,-3.48
2022-12-11T06:30:48.951Z,-3.53
2022-12-11T06:33:33.711Z,-3.46
2022-12-11T06:36:18.574Z,-3.54
2022-12-11T06:39:03.669Z,-3.60
2022-12-11T06:41:48.484Z,-3.39
2022-12-11T06:44:33.370Z,-3.45
2022-12-11T06:47:18.350Z,-3.62
2022-12-11T06:50:03.250Z,-3.74
2022-12-11T06:52:47.957Z,-3.86
2022-12-11T06:55:32.834Z,-4.05
2022-12-11T06:58:17.518Z,-3.90
2022-12-11T07:01:02.527Z,-3.95
2022-12-11T07:03:47.260Z,-3.91
2022-12-11T07:06:32.048Z,-3.93
2022-12-11T07:09:16.773Z,-3.98
2022-12-11T07:12:01.535Z,-3.85
2022-12-11T07:14:46.394Z,-3.89
2022-12-11T07:17:31.274Z,-3.99
2022-12-11T07:20:16.030Z,-3.99
2022-12-11T07:23:00.837Z,-4.00
2022-12-11T07:25:45.727Z,-4.03
2022-12-11T07:28:30.415Z,-4.11
2022-12-11T07:31:15.390Z,-4.11
2022-12-11T07:34:00.591Z,-4.06
2022-12-11T07:36:45.727Z,-3.98
2022-12-11T07:39:30.490Z,-3.90
2022-12-11T07:42:15.154Z,-3.88
2022-12-11T07:44:59.874Z,-3.86
2022-12-11T07:47:44.539Z,-3.93
2022-12-11T07:50:29.375Z,-3.87
2022-12-11T07:53:14.090Z,-3.84
2022-12-11T07:55:58.808Z,-3.83
2022-12-11T07:58:43.447Z,-3.83
2022-12-11T08:01:28.122Z,-3.88
2022-12-11T08:04:13.304Z,-3.83
2022-12-11T08:06:58.062Z,-3.78
2022-12-11T08:09:42.750Z,-3.46
2022-12-11T08:12:27.631Z,-3.19
2022-12-11T08:15:12.673Z,-3.00
2022-12-11T08:17:57.766Z,-2.87
2022-12-11T08:20:42.520Z,-2.71
2022-12-11T08:23:27.131Z,-2.62
2022-12-11T08:26:11.838Z,-2.49
2022-12-11T08:28:56.489Z,-2.34
2022-12-11T08:31:41.406Z,-2.15
2022-12-11T08:34:26.114Z,-1.99
2022-12-11T08:37:10.924Z,-1.83
2022-12-11T08:39:55.570Z,-1.71
2022-12-11T08:42:40.367Z,-1.56
2022-12-11T08:45:25.052Z,-1.39
2022-12-11T08:48:09.822Z,-1.32
2022-12-11T08:50:54.671Z,-1.13
2022-12-11T08:53:39.390Z,-1.01
2022-12-11T08:56:24.211Z,-1.07
2022-12-11T08:59:08.969Z,-1.07
2022-12-11T09:01:53.726Z,-1.11
2022-12-11T09:04:38.358Z,-1.00
2022-12-11T09:07:23.225Z,-0.86
2022-12-11T09:10:07.874Z,-0.78
2022-12-11T09:12:52.531Z,-0.74
2022-12-11T09:15:37.229Z,-0.70
2022-12-11T09:18:22.061Z,-0.63
2022-12-11T09:21:06.857Z,-0.66
2022-12-11T09:23:51.607Z,-0.73
2022-12-11T09:26:36.406Z,-1.02
2022-12-11T09:29:21.084Z,-1.19
2022-12-11T09:32:05.959Z,-1.35
2022-12-11T09:34:50.590Z,-1.45
2022-12-11T09:37:35.342Z,-1.56
2022-12-11T09:40:19.993Z,-1.61
2022-12-11T09:43:04.709Z,-1.48
2022-12-11T09:45:49.412Z,-1.44
2022-12-11T09:48:34.136Z,-1.56
2022-12-11T09:51:19.062Z,-1.53
2022-12-11T09:54:03.702Z,-1.29
2022-12-11T09:56:48.531Z,-1.05
2022-12-11T09:59:33.326Z,-0.92
2022-12-11T10:02:18.176Z,-1.01
2022-12-11T10:05:02.927Z,-1.10
2022-12-11T10:07:47.722Z,-1.19
2022-12-11T10:10:32.376Z,-0.99
2022-12-11T10:13:17.134Z,-0.75
2022-12-11T10:16:02.012Z,-0.53
2022-12-11T10:18:46.800Z,-0.39
2022-12-11T10:21:31.957Z,-0.37
2022-12-11T10:24:34.673Z,-0.54
2022-12-11T10:27:21.999Z,-0.55
2022-12-11T10:30:06.806Z,-0.41
2022-12-11T10:32:51.762Z,-0.26
2022-12-11T10:35:36.600Z,-0.10
2022-12-11T10:38:21.370Z,0.04
2022-12-11T10:41:06.114Z,0.17
2022-12-11T10:43:50.886Z,0.27
2022-12-11T10:46:35.687Z,0.37
2022-12-11T10:49:20.507Z,0.41
2022-12-11T10:52:05.198Z,0.49
2022-12-11T10:54:50.127Z,0.53
2022-12-11T10:57:34.944Z,0.57
2022-12-11T11:00:19.758Z,0.60
2022-12-11T11:03:04.383Z,0.68
2022-12-11T11:05:49.666Z,0.79
2022-12-11T11:08:34.883Z,0.77
2022-12-11T11:11:19.781Z,0.83
2022-12-11T11:14:04.450Z,0.86
2022-12-11T11:16:49.144Z,0.80
2022-12-11T11:19:33.889Z,0.84
2022-12-11T11:22:18.577Z,0.84
2022-12-11T11:25:03.345Z,0.84
2022-12-11T11:27:48.187Z,0.87
2022-12-11T11:30:33.000Z,0.89
2022-12-11T11:33:17.718Z,0.92
2022-12-11T11:36:02.643Z,0.98
2022-12-11T11:38:47.414Z,1.00
2022-12-11T11:41:32.276Z,1.00
2022-12-11T11:44:17.065Z,0.93
2022-12-11T11:47:01.862Z,0.81
2022-12-11T11:49:46.587Z,0.82
2022-12-11T11:52:31.524Z,0.80
2022-12-11T11:55:21.576Z,0.79
2022-12-11T11:58:07.069Z,0.80
2022-12-11T12:00:51.848Z,0.87
2022-12-11T12:03:36.723Z,0.77
2022-12-11T12:06:21.443Z,0.47
2022-12-11T12:09:06.287Z,0.13
2022-12-11T12:11:50.912Z,-0.16
2022-12-11T12:14:52.574Z,-0.41
2022-12-11T12:17:37.608Z,-0.67
2022-12-11T12:20:22.479Z,-0.81
2022-12-11T12:23:07.337Z,-0.99
2022-12-11T12:25:52.010Z,-0.95
2022-12-11T12:28:36.610Z,-0.97
2022-12-11T12:31:21.452Z,-0.90
2022-12-11T12:34:06.379Z,-0.90
2022-12-11T12:36:51.166Z,-0.81
2022-12-11T12:39:35.955Z,-0.60
2022-12-11T12:42:20.660Z,-0.36
2022-12-11T12:45:05.626Z,-0.18
2022-12-11T12:47:53.336Z,-0.10
2022-12-11T12:50:38.475Z,0.06
2022-12-11T12:53:23.370Z,-0.08
2022-12-11T12:56:08.088Z,-0.27
2022-12-11T12:58:52.927Z,-0.51
2022-12-11T13:01:37.650Z,-0.66
2022-12-11T13:04:53.956Z,-0.73
2022-12-11T13:07:27.433Z,-0.82
2022-12-11T13:10:12.198Z,-0.80
2022-12-11T13:12:57.118Z,-0.85
2022-12-11T13:15:41.911Z,-0.84
2022-12-11T13:18:26.764Z,-0.63
2022-12-11T13:21:11.724Z,-0.54
2022-12-11T13:23:56.488Z,-0.46
2022-12-11T13:26:41.228Z,-0.33
2022-12-11T13:29:25.898Z,-0.20
2022-12-11T13:32:10.652Z,-0.12
2022-12-11T13:34:55.295Z,-0.01
2022-12-11T13:37:40.115Z,0.04
2022-12-11T13:40:24.771Z,0.00
2022-12-11T13:43:09.512Z,0.02
2022-12-11T13:45:54.225Z,0.08
2022-12-11T13:48:38.878Z,-0.07
2022-12-11T13:51:23.648Z,-0.27
2022-12-11T13:54:10.639Z,-0.45
2022-12-11T13:56:58.882Z,-0.63
2022-12-11T13:59:43.695Z,-0.80
2022-12-11T14:02:28.551Z,-0.87
2022-12-11T14:05:13.604Z,-1.01
2022-12-11T14:07:58.687Z,-1.12
2022-12-11T14:10:43.495Z,-1.15
2022-12-11T14:13:28.323Z,-1.27
2022-12-11T14:16:13.100Z,-1.25
2022-12-11T14:18:57.728Z,-1.35
2022-12-11T14:21:42.336Z,-1.38
2022-12-11T14:24:27.240Z,-1.43
2022-12-11T14:27:11.884Z,-1.56
2022-12-11T14:29:56.625Z,-1.64
2022-12-11T14:32:41.275Z,-1.58
2022-12-11T14:35:26.015Z,-1.53
2022-12-11T14:38:10.767Z,-1.56
2022-12-11T14:40:55.568Z,-1.54
2022-12-11T14:43:40.296Z,-1.63
2022-12-11T14:46:25.171Z,-1.73
2022-12-11T14:49:09.774Z,-1.82
2022-12-11T14:51:54.631Z,-1.90
2022-12-11T14:54:39.262Z,-1.97
2022-12-11T14:57:24.027Z,-1.97
2022-12-11T15:00:08.932Z,-1.91
2022-12-11T15:02:54.156Z,-1.93
2022-12-11T15:05:40.975Z,-1.95
2022-12-11T15:08:26.302Z,-1.94
2022-12-11T15:11:10.955Z,-2.02
2022-12-11T15:13:55.715Z,-2.08
2022-12-11T15:16:40.962Z,-2.19
2022-12-11T15:19:25.692Z,-2.27
2022-12-11T15:22:10.487Z,-2.31
2022-12-11T15:24:55.405Z,-2.31
2022-12-11T15:27:40.191Z,-2.34
2022-12-11T15:30:24.940Z,-2.46
2022-12-11T15:33:09.618Z,-2.61
2022-12-11T15:35:54.270Z,-2.74
2022-12-11T15:38:38.926Z,-2.87
2022-12-11T15:41:23.716Z,-2.93
2022-12-11T15:44:08.446Z,-2.96
2022-12-11T15:46:53.240Z,-3.05
2022-12-11T15:49:38.095Z,-3.14
2022-12-11T15:52:23.040Z,-3.04
2022-12-11T15:55:07.876Z,-3.04
2022-12-11T15:57:52.656Z,-3.13
2022-12-11T16:00:37.358Z,-3.19
2022-12-11T16:03:21.980Z,-3.21
2022-12-11T16:06:06.864Z,-3.21
2022-12-11T16:08:51.630Z,-3.30
2022-12-11T16:11:36.363Z,-3.37
2022-12-11T16:14:21.080Z,-3.36
2022-12-11T16:17:05.985Z,-3.36
2022-12-11T16:19:50.561Z,-3.37
2022-12-11T16:22:35.318Z,-3.45
2022-12-11T16:25:20.122Z,-3.46
2022-12-11T16:28:04.866Z,-3.47
2022-12-11T16:30:49.827Z,-3.48
2022-12-11T16:33:34.603Z,-3.52
2022-12-11T16:36:19.492Z,-3.53
2022-12-11T16:39:04.159Z,-3.62
2022-12-11T16:41:48.911Z,-3.65
2022-12-11T16:44:33.604Z,-3.67
2022-12-11T16:47:18.456Z,-3.78
2022-12-11T16:50:03.235Z,-3.94
2022-12-11T16:52:48.118Z,-3.97
2022-12-11T16:55:32.963Z,-3.96
2022-12-11T16:58:17.874Z,-3.98
2022-12-11T17:01:02.763Z,-4.06
2022-12-11T17:03:47.362Z,-4.12
2022-12-11T17:06:33.343Z,-4.19
2022-12-11T17:09:18.141Z,-4.20
2022-12-11T17:12:02.912Z,-4.28
2022-12-11T17:14:47.751Z,-4.32
2022-12-11T17:17:32.501Z,-4.31
2022-12-11T17:20:17.332Z,-4.33
2022-12-11T17:23:02.228Z,-4.34
2022-12-11T17:25:47.108Z,-4.38
2022-12-11T17:28:31.772Z,-4.35
2022-12-11T17:31:16.704Z,-4.33
2022-12-11T17:34:01.362Z,-4.29
2022-12-11T17:36:46.376Z,-4.29
2022-12-11T17:39:31.003Z,-4.28
2022-12-11T17:42:15.757Z,-4.30
2022-12-11T17:45:00.416Z,-4.27
2022-12-11T17:47:45.194Z,-4.24
2022-12-11T17:50:29.940Z,-4.20
2022-12-11T17:53:14.614Z,-4.20
2022-12-11T17:55:59.507Z,-4.21
2022-12-11T17:58:44.168Z,-4.23
2022-12-11T18:01:28.931Z,-4.27
2022-12-11T18:04:13.628Z,-4.33
2022-12-11T18:06:58.854Z,-4.32
2022-12-11T18:09:43.529Z,-4.36
2022-12-11T18:12:28.316Z,-4.38
2022-12-11T18:15:13.316Z,-4.39
2022-12-11T18:17:58.489Z,-4.43
2022-12-11T18:20:43.405Z,-4.40
2022-12-11T18:23:28.196Z,-4.37
2022-12-11T18:26:12.999Z,-4.34
2022-12-11T18:28:57.774Z,-4.32
2022-12-11T18:31:43.096Z,-4.30
2022-12-11T18:34:27.818Z,-4.35
2022-12-11T18:37:12.571Z,-4.35
2022-12-11T18:39:57.399Z,-4.30
2022-12-11T18:42:42.117Z,-4.27
2022-12-11T18:45:26.872Z,-4.32
2022-12-11T18:48:11.536Z,-4.33
2022-12-11T18:50:56.213Z,-4.29
2022-12-11T18:53:40.932Z,-4.24
2022-12-11T18:56:25.685Z,-4.24
2022-12-11T18:59:10.354Z,-4.18
2022-12-11T19:01:55.117Z,-4.19
2022-12-11T19:04:39.810Z,-4.23
2022-12-11T19:07:24.564Z,-4.27
2022-12-11T19:10:09.319Z,-4.16
2022-12-11T19:12:54.024Z,-4.24
2022-12-11T19:15:38.758Z,-4.21
2022-12-11T19:18:23.515Z,-4.16
2022-12-11T19:21:09.226Z,-4.20
2022-12-11T19:23:54.098Z,-4.24
2022-12-11T19:26:38.896Z,-4.24
2022-12-11T19:29:23.613Z,-4.22
2022-12-11T19:32:08.255Z,-4.20
2022-12-11T19:34:52.871Z,-4.27
2022-12-11T19:37:37.704Z,-4.33
2022-12-11T19:40:22.371Z,-4.43
2022-12-11T19:43:07.163Z,-4.38
2022-12-11T19:45:51.898Z,-4.41
2022-12-11T19:48:36.767Z,-4.52
2022-12-11T19:51:21.614Z,-4.52
2022-12-11T19:54:06.310Z,-4.49
2022-12-11T19:56:51.058Z,-4.55
2022-12-11T19:59:35.694Z,-4.57
2022-12-11T20:02:20.527Z,-4.59
2022-12-11T20:05:05.195Z,-4.69
2022-12-11T20:07:50.054Z,-4.79
2022-12-11T20:10:35.292Z,-4.86
2022-12-11T20:13:20.114Z,-4.92
2022-12-11T20:16:05.194Z,-5.02
2022-12-11T20:18:49.922Z,-5.09
2022-12-11T20:21:34.688Z,-5.13
2022-12-11T20:24:19.410Z,-5.21
2022-12-11T20:27:04.114Z,-5.23
2022-12-11T20:29:48.833Z,-5.28
2022-12-11T20:32:33.550Z,-5.32
2022-12-11T20:35:18.071Z,-5.32
2022-12-11T20:38:02.866Z,-5.27
2022-12-11T20:40:47.741Z,-5.15
2022-12-11T20:43:32.612Z,-5.16
2022-12-11T20:46:17.465Z,-5.08
2022-12-11T20:49:02.100Z,-5.05
2022-12-11T20:51:46.845Z,-5.05
2022-12-11T20:54:31.500Z,-4.96
2022-12-11T20:57:16.255Z,-4.86
2022-12-11T21:00:00.993Z,-4.80
2022-12-11T21:02:45.768Z,-4.92
2022-12-11T21:05:30.495Z,-4.89
2022-12-11T21:08:15.405Z,-4.91
2022-12-11T21:11:00.108Z,-4.87
2022-12-11T21:13:44.627Z,-4.72
2022-12-11T21:16:29.488Z,-4.50
2022-12-11T21:19:16.821Z,-4.49
2022-12-11T21:22:02.178Z,-4.46
2022-12-11T21:24:46.866Z,-4.40
2022-12-11T21:27:31.844Z,-4.45
2022-12-11T21:30:16.582Z,-4.52
2022-12-11T21:33:01.467Z,-4.44
2022-12-11T21:35:46.210Z,-4.53
2022-12-11T21:38:30.859Z,-4.56
2022-12-11T21:41:15.620Z,-4.69
2022-12-11T21:47:05.096Z,-4.58
2022-12-11T21:49:49.819Z,-4.36
2022-12-11T21:52:34.586Z,-4.29
2022-12-11T21:55:19.473Z,-4.28
2022-12-11T21:58:04.196Z,-4.38
2022-12-11T22:00:48.927Z,-4.55
2022-12-11T22:03:33.590Z,-4.63
2022-12-11T22:06:18.468Z,-4.55
2022-12-11T22:09:03.247Z,-4.56
2022-12-11T22:11:47.955Z,-4.59
2022-12-11T22:14:32.711Z,-4.59
2022-12-11T22:17:17.611Z,-4.67
2022-12-11T22:20:02.404Z,-4.71
2022-12-11T22:22:47.178Z,-4.73
2022-12-11T22:25:31.947Z,-4.70
2022-12-11T22:28:16.660Z,-4.66
2022-12-11T22:31:01.450Z,-4.59
2022-12-11T22:33:46.056Z,-4.59
2022-12-11T22:36:30.741Z,-4.58
2022-12-11T22:39:15.361Z,-4.60
2022-12-11T22:42:00.210Z,-4.58
2022-12-11T22:44:45.039Z,-4.67
2022-12-11T22:47:29.798Z,-4.67
2022-12-11T22:50:14.647Z,-4.72
2022-12-11T22:52:59.318Z,-4.61
2022-12-11T22:55:44.180Z,-4.56
2022-12-11T22:58:28.834Z,-4.58
2022-12-11T23:01:13.756Z,-4.67
2022-12-11T23:03:58.485Z,-4.70
2022-12-11T23:06:43.336Z,-4.75
2022-12-11T23:09:27.988Z,-4.76
2022-12-11T23:12:12.714Z,-4.80
2022-12-11T23:14:57.444Z,-4.80
2022-12-11T23:17:42.077Z,-4.83
2022-12-11T23:20:26.962Z,-4.80
2022-12-11T23:23:11.688Z,-4.77
2022-12-11T23:25:56.475Z,-4.70
2022-12-11T23:28:41.191Z,-4.71
2022-12-11T23:31:25.913Z,-4.69
2022-12-11T23:34:11.169Z,-4.65
2022-12-11T23:36:55.987Z,-4.65
2022-12-11T23:39:40.701Z,-4.57
2022-12-11T23:42:25.479Z,-4.60
2022-12-11T23:45:10.578Z,-4.56
2022-12-11T23:47:55.475Z,-4.58
2022-12-11T23:50:40.215Z,-4.62
2022-12-11T23:53:25.010Z,-4.66
2022-12-11T23:56:09.856Z,-4.70
2022-12-11T23:58:54.573Z,-4.63
